John_paul K — PBHY — position and weather

sailwx.info

Track history (hours):
 
Tides and Currents Weather Stations Pressure Air Temp Water Temp Dewpoint Dewpoint Depression Visibility Wind Speed Wind Dir Waves Ship Positions

John_paul K

Last reported at 2017-Mar-26 20:33 UTC. Time now 2017-Mar-26 20:58 UTC.
Position N 36°43' E 014°17'.

Length 90 m; draft 6 m.

Type: Cargo ship. MMSI: 245181000.

Date/timePositionNaut miles runAvg speedWind from/ knotsBaromVisibWave heightAir tempDewpointWater temp
2017-Mar-26 20:33N 36°43' E 014°17'1010.2
2017-Mar-26 19:33N 36°40' E 014°29'14 9.6
2017-Mar-26 18:03N 36°35' E 014°46'  
2017-Mar-19 14:33N 43°52' E 014°19'6 6.3
2017-Mar-19 13:33N 43°57' E 014°13'6 6.2
2017-Mar-19 12:33N 44°02' E 014°08'6 6.1
2017-Mar-19 11:33N 44°06' E 014°03'6 6.0
2017-Mar-19 10:33N 44°11' E 013°58'6 6.1
2017-Mar-19 09:33N 44°16' E 013°54'6 6.1
2017-Mar-19 08:33N 44°21' E 013°49'6 6.2
2017-Mar-19 07:33N 44°27' E 013°44'10 9.6
2017-Mar-19 06:33N 44°35' E 013°37'6 6.4
2017-Mar-19 05:33N 44°40' E 013°32'7 6.6
2017-Mar-19 04:33N 44°46' E 013°27'7 7.0
2017-Mar-19 03:33N 44°52' E 013°22'7 7.0
2017-Mar-19 02:33N 44°57' E 013°16'7 6.7
2017-Mar-19 01:33N 45°03' E 013°11'6 6.5
2017-Mar-19 00:33N 45°08' E 013°06'6 5.9
2017-Mar-18 23:33N 45°14' E 013°04'6 6.0
2017-Mar-18 22:33N 45°20' E 013°02'7 7.3
2017-Mar-18 21:33N 45°26' E 013°08'6 6.4
2017-Mar-18 20:33N 45°30' E 013°14'6 6.5
2017-Mar-18 19:33N 45°34' E 013°22'8 8.4
2017-Mar-18 18:33N 45°37' E 013°33'7 7.5
2017-Mar-18 17:33N 45°45' E 013°36'4 3.6
2017-Mar-18 16:33N 45°47' E 013°33'0 0.0
2017-Mar-18 15:27N 45°47' E 013°33'0 0.0
2017-Mar-18 14:33N 45°47' E 013°33'0 0.0
2017-Mar-18 13:33N 45°47' E 013°33'0 0.0
2017-Mar-18 12:33N 45°47' E 013°33'0 0.0
2017-Mar-18 11:24N 45°47' E 013°33'0 0.0
2017-Mar-18 10:33N 45°47' E 013°33'0 0.0
2017-Mar-18 09:30N 45°47' E 013°33'0 0.0
2017-Mar-18 08:33N 45°47' E 013°33'0 0.0
2017-Mar-18 07:27N 45°47' E 013°33'0 0.0
2017-Mar-18 06:24N 45°47' E 013°33'0 0.4
2017-Mar-18 05:33N 45°47' E 013°33'4 4.3
2017-Mar-18 04:31N 45°44' E 013°38'0 0.0
2017-Mar-18 03:31N 45°44' E 013°38'0 0.0
2017-Mar-18 02:31N 45°44' E 013°38'0 0.0
2017-Mar-18 01:31N 45°44' E 013°38'0 0.0
2017-Mar-18 00:34N 45°44' E 013°38'0 0.0
2017-Mar-17 23:34N 45°44' E 013°38'0 0.0
2017-Mar-17 22:33N 45°44' E 013°38'0 0.0
2017-Mar-17 21:30N 45°44' E 013°38'0 0.0
2017-Mar-17 20:33N 45°44' E 013°38'0 0.0
2017-Mar-17 19:33N 45°44' E 013°38'0 0.1
2017-Mar-17 18:33N 45°44' E 013°38'6 6.1
2017-Mar-17 17:33N 45°38' E 013°36'9 9.2
2017-Mar-17 16:33N 45°32' E 013°26'9 9.2
2017-Mar-17 15:34N 45°27' E 013°16'8 7.9
2017-Mar-17 14:33N 45°19' E 013°13'9 8.9
2017-Mar-17 13:34N 45°10' E 013°15'9 9.1
2017-Mar-17 12:34N 45°02' E 013°20'9 9.3
2017-Mar-17 11:34N 44°53' E 013°26'9 9.4
2017-Mar-17 10:33N 44°45' E 013°33'9 9.5
2017-Mar-17 09:33N 44°38' E 013°40'10 9.4
2017-Mar-17 08:28N 44°29' E 013°48'9 9.4
2017-Mar-17 07:34N 44°22' E 013°54'10 9.7
2017-Mar-17 06:34N 44°14' E 014°02'10 9.9
2017-Mar-17 05:32N 44°05' E 014°10'14 9.8
2017-Mar-17 04:07N 43°55' E 014°22'  
Track history (hours):
 
Tides and Currents Weather Stations Pressure Air Temp Water Temp Dewpoint Dewpoint Depression Visibility Wind Speed Wind Dir Waves Ship Positions

John_paul K

Last reported at 2017-Mar-26 20:33 UTC. Time now 2017-Mar-26 20:58 UTC.
Position N 36°43' E 014°17'.

Length 90 m; draft 6 m.

Type: Cargo ship. MMSI: 245181000.

Date/timePositionNaut miles runAvg speedWind from/ knotsBaromVisibWave heightAir tempDewpointWater temp
2017-Mar-26 20:33N 36°43' E 014°17'1010.2
2017-Mar-26 19:33N 36°40' E 014°29'14 9.6
2017-Mar-26 18:03N 36°35' E 014°46'  
2017-Mar-19 14:33N 43°52' E 014°19'6 6.3
2017-Mar-19 13:33N 43°57' E 014°13'6 6.2
2017-Mar-19 12:33N 44°02' E 014°08'6 6.1
2017-Mar-19 11:33N 44°06' E 014°03'6 6.0
2017-Mar-19 10:33N 44°11' E 013°58'6 6.1
2017-Mar-19 09:33N 44°16' E 013°54'6 6.1
2017-Mar-19 08:33N 44°21' E 013°49'6 6.2
2017-Mar-19 07:33N 44°27' E 013°44'10 9.6
2017-Mar-19 06:33N 44°35' E 013°37'6 6.4
2017-Mar-19 05:33N 44°40' E 013°32'7 6.6
2017-Mar-19 04:33N 44°46' E 013°27'7 7.0
2017-Mar-19 03:33N 44°52' E 013°22'7 7.0
2017-Mar-19 02:33N 44°57' E 013°16'7 6.7
2017-Mar-19 01:33N 45°03' E 013°11'6 6.5
2017-Mar-19 00:33N 45°08' E 013°06'6 5.9
2017-Mar-18 23:33N 45°14' E 013°04'6 6.0
2017-Mar-18 22:33N 45°20' E 013°02'7 7.3
2017-Mar-18 21:33N 45°26' E 013°08'6 6.4
2017-Mar-18 20:33N 45°30' E 013°14'6 6.5
2017-Mar-18 19:33N 45°34' E 013°22'8 8.4
2017-Mar-18 18:33N 45°37' E 013°33'7 7.5
2017-Mar-18 17:33N 45°45' E 013°36'4 3.6
2017-Mar-18 16:33N 45°47' E 013°33'0 0.0
2017-Mar-18 15:27N 45°47' E 013°33'0 0.0
2017-Mar-18 14:33N 45°47' E 013°33'0 0.0
2017-Mar-18 13:33N 45°47' E 013°33'0 0.0
2017-Mar-18 12:33N 45°47' E 013°33'0 0.0
2017-Mar-18 11:24N 45°47' E 013°33'0 0.0
2017-Mar-18 10:33N 45°47' E 013°33'0 0.0
2017-Mar-18 09:30N 45°47' E 013°33'0 0.0
2017-Mar-18 08:33N 45°47' E 013°33'0 0.0
2017-Mar-18 07:27N 45°47' E 013°33'0 0.0
2017-Mar-18 06:24N 45°47' E 013°33'0 0.4
2017-Mar-18 05:33N 45°47' E 013°33'4 4.3
2017-Mar-18 04:31N 45°44' E 013°38'0 0.0
2017-Mar-18 03:31N 45°44' E 013°38'0 0.0
2017-Mar-18 02:31N 45°44' E 013°38'0 0.0
2017-Mar-18 01:31N 45°44' E 013°38'0 0.0
2017-Mar-18 00:34N 45°44' E 013°38'0 0.0
2017-Mar-17 23:34N 45°44' E 013°38'0 0.0
2017-Mar-17 22:33N 45°44' E 013°38'0 0.0
2017-Mar-17 21:30N 45°44' E 013°38'0 0.0
2017-Mar-17 20:33N 45°44' E 013°38'0 0.0
2017-Mar-17 19:33N 45°44' E 013°38'0 0.1
2017-Mar-17 18:33N 45°44' E 013°38'6 6.1
2017-Mar-17 17:33N 45°38' E 013°36'9 9.2
2017-Mar-17 16:33N 45°32' E 013°26'9 9.2
2017-Mar-17 15:34N 45°27' E 013°16'8 7.9
2017-Mar-17 14:33N 45°19' E 013°13'9 8.9
2017-Mar-17 13:34N 45°10' E 013°15'9 9.1
2017-Mar-17 12:34N 45°02' E 013°20'9 9.3
2017-Mar-17 11:34N 44°53' E 013°26'9 9.4
2017-Mar-17 10:33N 44°45' E 013°33'9 9.5
2017-Mar-17 09:33N 44°38' E 013°40'10 9.4
2017-Mar-17 08:28N 44°29' E 013°48'9 9.4
2017-Mar-17 07:34N 44°22' E 013°54'10 9.7
2017-Mar-17 06:34N 44°14' E 014°02'10 9.9
2017-Mar-17 05:32N 44°05' E 014°10'14 9.8
2017-Mar-17 04:07N 43°55' E 014°22'  

Dump ship's entire track history